sensor_id;sensor_type;location;lat;lon;timestamp;pressure;altitude;pressure_sealevel;temperature;humidity
21290;BME280;10804;48.988;2.408;2024-02-21T00:00:54;101852.56;;;11.32;70.62
21290;BME280;10804;48.988;2.408;2024-02-21T00:03:22;101833.44;;;11.29;70.64
21290;BME280;10804;48.988;2.408;2024-02-21T00:05:49;101836.06;;;11.29;70.85
21290;BME280;10804;48.988;2.408;2024-02-21T00:08:17;101836.94;;;11.28;70.69
21290;BME280;10804;48.988;2.408;2024-02-21T00:10:44;101842.16;;;11.28;70.67
21290;BME280;10804;48.988;2.408;2024-02-21T00:13:13;101842.16;;;11.28;70.81
21290;BME280;10804;48.988;2.408;2024-02-21T00:15:40;101840.44;;;11.27;70.77
21290;BME280;10804;48.988;2.408;2024-02-21T00:18:08;101833.50;;;11.26;70.72
21290;BME280;10804;48.988;2.408;2024-02-21T00:20:36;101825.66;;;11.26;70.73
21290;BME280;10804;48.988;2.408;2024-02-21T00:23:04;101817.81;;;11.24;71.04
21290;BME280;10804;48.988;2.408;2024-02-21T00:25:31;101824.78;;;11.25;70.89
21290;BME280;10804;48.988;2.408;2024-02-21T00:27:59;101824.78;;;11.25;70.79
21290;BME280;10804;48.988;2.408;2024-02-21T00:30:27;101815.22;;;11.24;70.81
21290;BME280;10804;48.988;2.408;2024-02-21T00:32:55;101820.44;;;11.24;70.65
21290;BME280;10804;48.988;2.408;2024-02-21T00:35:22;101802.16;;;11.24;70.79
21290;BME280;10804;48.988;2.408;2024-02-21T00:37:49;101789.97;;;11.25;70.65
21290;BME280;10804;48.988;2.408;2024-02-21T00:40:17;101802.16;;;11.24;70.74
21290;BME280;10804;48.988;2.408;2024-02-21T00:42:46;101794.38;;;11.23;70.88
21290;BME280;10804;48.988;2.408;2024-02-21T00:45:13;101782.16;;;11.22;70.66
21290;BME280;10804;48.988;2.408;2024-02-21T00:47:42;101786.50;;;11.24;70.74
21290;BME280;10804;48.988;2.408;2024-02-21T00:50:10;101782.16;;;11.25;70.81
21290;BME280;10804;48.988;2.408;2024-02-21T00:52:37;101789.97;;;11.25;70.80
21290;BME280;10804;48.988;2.408;2024-02-21T00:55:05;101784.75;;;11.25;70.90
21290;BME280;10804;48.988;2.408;2024-02-21T00:57:33;101773.44;;;11.24;70.73
21290;BME280;10804;48.988;2.408;2024-02-21T01:00:00;101762.16;;;11.22;70.62
21290;BME280;10804;48.988;2.408;2024-02-21T01:02:28;101763.88;;;11.25;70.72
21290;BME280;10804;48.988;2.408;2024-02-21T01:04:58;101748.22;;;11.23;70.78
21290;BME280;10804;48.988;2.408;2024-02-21T01:07:26;101743.88;;;11.24;70.77
21290;BME280;10804;48.988;2.408;2024-02-21T01:09:53;101742.97;;;11.25;70.75
21290;BME280;10804;48.988;2.408;2024-02-21T01:12:20;101749.09;;;11.24;70.56
21290;BME280;10804;48.988;2.408;2024-02-21T01:14:47;101738.63;;;11.24;70.66
21290;BME280;10804;48.988;2.408;2024-02-21T01:17:15;101735.16;;;11.25;70.73
21290;BME280;10804;48.988;2.408;2024-02-21T01:19:42;101734.25;;;11.24;70.77
21290;BME280;10804;48.988;2.408;2024-02-21T01:22:11;101735.16;;;11.25;70.70
21290;BME280;10804;48.988;2.408;2024-02-21T01:24:38;101728.19;;;11.24;71.06
21290;BME280;10804;48.988;2.408;2024-02-21T01:27:06;101722.97;;;11.24;70.88
21290;BME280;10804;48.988;2.408;2024-02-21T01:29:33;101711.66;;;11.23;70.76
21290;BME280;10804;48.988;2.408;2024-02-21T01:32:00;101722.97;;;11.24;70.55
21290;BME280;10804;48.988;2.408;2024-02-21T01:34:27;101736.03;;;11.24;70.70
21290;BME280;10804;48.988;2.408;2024-02-21T01:36:55;101729.91;;;11.25;70.66
21290;BME280;10804;48.988;2.408;2024-02-21T01:39:23;101716.03;;;11.23;70.68
21290;BME280;10804;48.988;2.408;2024-02-21T01:41:51;101698.59;;;11.23;70.69
21290;BME280;10804;48.988;2.408;2024-02-21T01:44:18;101700.38;;;11.23;70.69
21290;BME280;10804;48.988;2.408;2024-02-21T01:46:45;101688.16;;;11.22;70.59
21290;BME280;10804;48.988;2.408;2024-02-21T01:49:13;101699.47;;;11.22;70.76
21290;BME280;10804;48.988;2.408;2024-02-21T01:51:41;101697.78;;;11.20;70.60
21290;BME280;10804;48.988;2.408;2024-02-21T01:54:08;101691.66;;;11.21;70.61
21290;BME280;10804;48.988;2.408;2024-02-21T01:56:38;101692.53;;;11.21;70.66
21290;BME280;10804;48.988;2.408;2024-02-21T01:59:06;101684.72;;;11.20;70.66
21290;BME280;10804;48.988;2.408;2024-02-21T02:01:33;101682.94;;;11.22;70.60
21290;BME280;10804;48.988;2.408;2024-02-21T02:04:01;101668.19;;;11.19;70.63
21290;BME280;10804;48.988;2.408;2024-02-21T02:06:29;101671.66;;;11.20;70.56
21290;BME280;10804;48.988;2.408;2024-02-21T02:08:57;101645.56;;;11.20;70.76
21290;BME280;10804;48.988;2.408;2024-02-21T02:11:25;101642.94;;;11.20;70.92
21290;BME280;10804;48.988;2.408;2024-02-21T02:13:53;101642.94;;;11.20;70.71
21290;BME280;10804;48.988;2.408;2024-02-21T02:16:21;101651.66;;;11.19;70.73
21290;BME280;10804;48.988;2.408;2024-02-21T02:18:48;101642.09;;;11.18;70.71
21290;BME280;10804;48.988;2.408;2024-02-21T02:21:23;101648.22;;;11.17;70.80
21290;BME280;10804;48.988;2.408;2024-02-21T02:23:53;101640.38;;;11.17;70.73
21290;BME280;10804;48.988;2.408;2024-02-21T02:26:20;101645.59;;;11.17;70.83
21290;BME280;10804;48.988;2.408;2024-02-21T02:28:48;101638.66;;;11.16;70.74
21290;BME280;10804;48.988;2.408;2024-02-21T02:31:15;101623.88;;;11.15;70.78
21290;BME280;10804;48.988;2.408;2024-02-21T02:33:42;101623.00;;;11.16;70.72
21290;BME280;10804;48.988;2.408;2024-02-21T02:36:11;101621.28;;;11.15;70.72
21290;BME280;10804;48.988;2.408;2024-02-21T02:38:38;101622.13;;;11.15;70.64
21290;BME280;10804;48.988;2.408;2024-02-21T02:41:07;101623.00;;;11.14;70.76
21290;BME280;10804;48.988;2.408;2024-02-21T02:43:34;101624.75;;;11.14;70.72
21290;BME280;10804;48.988;2.408;2024-02-21T02:46:03;101622.13;;;11.14;70.74
21290;BME280;10804;48.988;2.408;2024-02-21T02:48:30;101615.19;;;11.13;70.70
21290;BME280;10804;48.988;2.408;2024-02-21T02:50:58;101601.25;;;11.14;70.90
21290;BME280;10804;48.988;2.408;2024-02-21T02:53:25;101596.03;;;11.14;70.75
21290;BME280;10804;48.988;2.408;2024-02-21T02:55:53;101592.56;;;11.12;70.86
21290;BME280;10804;48.988;2.408;2024-02-21T02:58:22;101588.25;;;11.12;70.72
21290;BME280;10804;48.988;2.408;2024-02-21T03:00:50;101588.19;;;11.14;70.64
21290;BME280;10804;48.988;2.408;2024-02-21T03:03:17;101573.47;;;11.11;70.68
21290;BME280;10804;48.988;2.408;2024-02-21T03:05:45;101566.47;;;11.12;70.83
21290;BME280;10804;48.988;2.408;2024-02-21T03:08:12;101558.66;;;11.12;70.77
21290;BME280;10804;48.988;2.408;2024-02-21T03:10:40;101557.81;;;11.10;70.86
21290;BME280;10804;48.988;2.408;2024-02-21T03:13:07;101549.97;;;11.11;70.63
21290;BME280;10804;48.988;2.408;2024-02-21T03:15:36;101551.69;;;11.11;70.79
21290;BME280;10804;48.988;2.408;2024-02-21T03:18:03;101541.25;;;11.11;70.71
21290;BME280;10804;48.988;2.408;2024-02-21T03:20:31;101545.66;;;11.09;70.66
21290;BME280;10804;48.988;2.408;2024-02-21T03:22:58;101536.03;;;11.11;70.85
21290;BME280;10804;48.988;2.408;2024-02-21T03:25:25;101536.03;;;11.11;70.63
21290;BME280;10804;48.988;2.408;2024-02-21T03:27:53;101530.81;;;11.11;70.68
21290;BME280;10804;48.988;2.408;2024-02-21T03:30:20;101521.25;;;11.10;70.76
21290;BME280;10804;48.988;2.408;2024-02-21T03:32:49;101511.66;;;11.10;70.80
21290;BME280;10804;48.988;2.408;2024-02-21T03:35:16;101509.06;;;11.10;70.74
21290;BME280;10804;48.988;2.408;2024-02-21T03:37:44;101501.22;;;11.10;70.79
21290;BME280;10804;48.988;2.408;2024-02-21T03:40:12;101496.88;;;11.11;70.67
21290;BME280;10804;48.988;2.408;2024-02-21T03:42:40;101499.50;;;11.11;70.87
21290;BME280;10804;48.988;2.408;2024-02-21T03:45:08;101494.28;;;11.09;70.77
21290;BME280;10804;48.988;2.408;2024-02-21T03:47:35;101504.72;;;11.09;70.83
21290;BME280;10804;48.988;2.408;2024-02-21T03:50:05;101522.16;;;11.09;70.81
21290;BME280;10804;48.988;2.408;2024-02-21T03:52:33;101507.34;;;11.09;70.88
21290;BME280;10804;48.988;2.408;2024-02-21T03:55:00;101503.88;;;11.09;70.81
21290;BME280;10804;48.988;2.408;2024-02-21T03:57:28;101513.44;;;11.08;70.78
21290;BME280;10804;48.988;2.408;2024-02-21T03:59:56;101504.78;;;11.08;70.82
21290;BME280;10804;48.988;2.408;2024-02-21T04:02:24;101507.38;;;11.08;70.92
21290;BME280;10804;48.988;2.408;2024-02-21T04:04:51;101507.38;;;11.08;70.79
21290;BME280;10804;48.988;2.408;2024-02-21T04:07:20;101518.66;;;11.08;70.72
21290;BME280;10804;48.988;2.408;2024-02-21T04:09:47;101496.94;;;11.08;70.74
21290;BME280;10804;48.988;2.408;2024-02-21T04:12:14;101494.31;;;11.08;70.84
21290;BME280;10804;48.988;2.408;2024-02-21T04:14:41;101496.94;;;11.06;70.67
21290;BME280;10804;48.988;2.408;2024-02-21T04:17:09;101489.13;;;11.06;70.71
21290;BME280;10804;48.988;2.408;2024-02-21T04:19:36;101486.50;;;11.08;70.74
21290;BME280;10804;48.988;2.408;2024-02-21T04:22:04;101486.53;;;11.05;70.70
21290;BME280;10804;48.988;2.408;2024-02-21T04:24:33;101463.88;;;11.07;70.68
21290;BME280;10804;48.988;2.408;2024-02-21T04:27:00;101471.69;;;11.07;70.76
21290;BME280;10804;48.988;2.408;2024-02-21T04:29:28;101478.69;;;11.06;70.67
21290;BME280;10804;48.988;2.408;2024-02-21T04:31:55;101471.75;;;11.05;70.74
21290;BME280;10804;48.988;2.408;2024-02-21T04:34:23;101467.38;;;11.06;70.76
21290;BME280;10804;48.988;2.408;2024-02-21T04:36:50;101469.13;;;11.05;70.83
21290;BME280;10804;48.988;2.408;2024-02-21T04:39:17;101478.69;;;11.05;70.78
21290;BME280;10804;48.988;2.408;2024-02-21T04:41:46;101470.88;;;11.05;70.83
21290;BME280;10804;48.988;2.408;2024-02-21T04:44:13;101449.97;;;11.05;70.76
21290;BME280;10804;48.988;2.408;2024-02-21T04:46:42;101433.47;;;11.04;70.81
21290;BME280;10804;48.988;2.408;2024-02-21T04:49:09;101439.53;;;11.05;70.84
21290;BME280;10804;48.988;2.408;2024-02-21T04:51:37;101448.25;;;11.04;70.87
21290;BME280;10804;48.988;2.408;2024-02-21T04:54:04;101449.16;;;11.03;70.79
21290;BME280;10804;48.988;2.408;2024-02-21T04:56:32;101445.66;;;11.04;70.73
21290;BME280;10804;48.988;2.408;2024-02-21T04:59:01;101451.75;;;11.03;70.81
21290;BME280;10804;48.988;2.408;2024-02-21T05:01:28;101455.25;;;11.02;70.80
21290;BME280;10804;48.988;2.408;2024-02-21T05:03:56;101452.63;;;11.03;70.93
21290;BME280;10804;48.988;2.408;2024-02-21T05:06:23;101452.63;;;11.03;70.91
21290;BME280;10804;48.988;2.408;2024-02-21T05:08:51;101448.31;;;11.01;70.94
21290;BME280;10804;48.988;2.408;2024-02-21T05:11:18;101433.50;;;11.01;70.82
21290;BME280;10804;48.988;2.408;2024-02-21T05:13:45;101418.75;;;10.99;70.77
21290;BME280;10804;48.988;2.408;2024-02-21T05:16:14;101429.19;;;10.99;70.88
21290;BME280;10804;48.988;2.408;2024-02-21T05:18:41;101432.66;;;11.01;70.84
21290;BME280;10804;48.988;2.408;2024-02-21T05:21:09;101432.66;;;11.01;70.83
21290;BME280;10804;48.988;2.408;2024-02-21T05:23:37;101420.53;;;10.98;70.93
21290;BME280;10804;48.988;2.408;2024-02-21T05:26:05;101420.50;;;11.00;70.97
21290;BME280;10804;48.988;2.408;2024-02-21T05:28:33;101423.97;;;10.99;70.75
21290;BME280;10804;48.988;2.408;2024-02-21T05:31:00;101417.91;;;10.98;70.92
21290;BME280;10804;48.988;2.408;2024-02-21T05:33:29;101395.25;;;10.99;70.83
21290;BME280;10804;48.988;2.408;2024-02-21T05:35:56;101385.72;;;10.98;70.87
21290;BME280;10804;48.988;2.408;2024-02-21T05:38:23;101384.88;;;10.97;70.67
21290;BME280;10804;48.988;2.408;2024-02-21T05:40:52;101377.06;;;10.96;70.83
21290;BME280;10804;48.988;2.408;2024-02-21T05:43:19;101376.25;;;10.94;70.83
21290;BME280;10804;48.988;2.408;2024-02-21T05:45:46;101372.72;;;10.95;70.91
21290;BME280;10804;48.988;2.408;2024-02-21T05:48:14;101363.19;;;10.94;70.91
21290;BME280;10804;48.988;2.408;2024-02-21T05:50:43;101376.25;;;10.94;70.93
21290;BME280;10804;48.988;2.408;2024-02-21T05:53:10;101371.91;;;10.93;70.82
21290;BME280;10804;48.988;2.408;2024-02-21T05:55:38;101362.38;;;10.92;70.98
21290;BME280;10804;48.988;2.408;2024-02-21T05:58:06;101385.84;;;10.92;70.83
21290;BME280;10804;48.988;2.408;2024-02-21T06:00:33;101377.16;;;10.90;70.91
21290;BME280;10804;48.988;2.408;2024-02-21T06:03:00;101371.06;;;10.91;70.92
21290;BME280;10804;48.988;2.408;2024-02-21T06:05:28;101383.28;;;10.89;70.99
21290;BME280;10804;48.988;2.408;2024-02-21T06:07:56;101365.00;;;10.89;70.84
21290;BME280;10804;48.988;2.408;2024-02-21T06:10:24;101354.63;;;10.86;70.98
21290;BME280;10804;48.988;2.408;2024-02-21T06:12:51;101355.47;;;10.86;70.98
21290;BME280;10804;48.988;2.408;2024-02-21T06:15:18;101361.56;;;10.87;70.87
21290;BME280;10804;48.988;2.408;2024-02-21T06:17:45;101350.25;;;10.86;71.11
21290;BME280;10804;48.988;2.408;2024-02-21T06:20:13;101324.22;;;10.85;71.07
21290;BME280;10804;48.988;2.408;2024-02-21T06:22:43;101321.59;;;10.85;71.08
21290;BME280;10804;48.988;2.408;2024-02-21T06:25:12;101298.97;;;10.84;71.02
21290;BME280;10804;48.988;2.408;2024-02-21T06:27:39;101312.91;;;10.83;71.07
21290;BME280;10804;48.988;2.408;2024-02-21T06:30:08;101312.09;;;10.81;71.04
21290;BME280;10804;48.988;2.408;2024-02-21T06:32:35;101311.19;;;10.82;71.08
21290;BME280;10804;48.988;2.408;2024-02-21T06:35:04;101307.75;;;10.81;70.99
21290;BME280;10804;48.988;2.408;2024-02-21T06:37:32;101326.91;;;10.79;71.12
21290;BME280;10804;48.988;2.408;2024-02-21T06:39:59;101313.03;;;10.77;70.96
21290;BME280;10804;48.988;2.408;2024-02-21T06:42:28;101324.31;;;10.77;71.06
21290;BME280;10804;48.988;2.408;2024-02-21T06:44:55;101310.44;;;10.77;71.08
21290;BME280;10804;48.988;2.408;2024-02-21T06:47:23;101299.94;;;10.78;71.08
21290;BME280;10804;48.988;2.408;2024-02-21T06:49:49;101309.53;;;10.78;71.05
21290;BME280;10804;48.988;2.408;2024-02-21T06:52:17;101299.09;;;10.78;71.07
21290;BME280;10804;48.988;2.408;2024-02-21T06:54:46;101313.06;;;10.75;71.11
21290;BME280;10804;48.988;2.408;2024-02-21T06:57:14;101296.53;;;10.75;71.10
21290;BME280;10804;48.988;2.408;2024-02-21T06:59:43;101310.44;;;10.75;71.21
21290;BME280;10804;48.988;2.408;2024-02-21T07:02:10;101302.66;;;10.74;71.23
21290;BME280;10804;48.988;2.408;2024-02-21T07:04:37;101293.97;;;10.73;71.22
21290;BME280;10804;48.988;2.408;2024-02-21T07:07:05;101294.00;;;10.72;71.13
21290;BME280;10804;48.988;2.408;2024-02-21T07:09:32;101280.94;;;10.72;71.14
21290;BME280;10804;48.988;2.408;2024-02-21T07:11:59;101291.38;;;10.72;71.13
21290;BME280;10804;48.988;2.408;2024-02-21T07:14:28;101268.78;;;10.71;71.21
21290;BME280;10804;48.988;2.408;2024-02-21T07:16:57;101274.00;;;10.71;71.38
21290;BME280;10804;48.988;2.408;2024-02-21T07:19:24;101272.28;;;10.70;71.25
21290;BME280;10804;48.988;2.408;2024-02-21T07:21:51;101263.59;;;10.71;71.23
21290;BME280;10804;48.988;2.408;2024-02-21T07:24:19;101281.00;;;10.69;71.24
21290;BME280;10804;48.988;2.408;2024-02-21T07:26:47;101287.09;;;10.68;70.99
21290;BME280;10804;48.988;2.408;2024-02-21T07:29:14;101281.03;;;10.67;71.28
21290;BME280;10804;48.988;2.408;2024-02-21T07:31:42;101298.41;;;10.68;71.23
21290;BME280;10804;48.988;2.408;2024-02-21T07:34:11;101297.53;;;10.68;71.25
21290;BME280;10804;48.988;2.408;2024-02-21T07:36:38;101299.28;;;10.67;71.28
21290;BME280;10804;48.988;2.408;2024-02-21T07:39:06;101290.59;;;10.67;71.12
21290;BME280;10804;48.988;2.408;2024-02-21T07:41:33;101279.31;;;10.66;71.35
21290;BME280;10804;48.988;2.408;2024-02-21T07:44:00;101287.97;;;10.67;71.42
21290;BME280;10804;48.988;2.408;2024-02-21T07:46:29;101288.84;;;10.67;71.27
21290;BME280;10804;48.988;2.408;2024-02-21T07:48:56;101292.31;;;10.68;71.30
21290;BME280;10804;48.988;2.408;2024-02-21T07:51:28;101279.25;;;10.68;71.25
21290;BME280;10804;48.988;2.408;2024-02-21T07:53:56;101285.34;;;10.68;71.27
21290;BME280;10804;48.988;2.408;2024-02-21T07:56:23;101287.97;;;10.67;71.19
21290;BME280;10804;48.988;2.408;2024-02-21T07:58:50;101284.47;;;10.68;71.20
21290;BME280;10804;48.988;2.408;2024-02-21T08:01:18;101280.13;;;10.68;71.20
21290;BME280;10804;48.988;2.408;2024-02-21T08:03:46;101274.03;;;10.68;70.86
21290;BME280;10804;48.988;2.408;2024-02-21T08:06:13;101263.59;;;10.69;71.29
21290;BME280;10804;48.988;2.408;2024-02-21T08:08:42;101265.38;;;10.69;71.37
21290;BME280;10804;48.988;2.408;2024-02-21T08:11:09;101254.94;;;10.69;71.17
21290;BME280;10804;48.988;2.408;2024-02-21T08:13:36;101249.72;;;10.69;71.08
21290;BME280;10804;48.988;2.408;2024-02-21T08:16:04;101230.56;;;10.70;71.17
21290;BME280;10804;48.988;2.408;2024-02-21T08:18:31;101231.44;;;10.69;71.13
21290;BME280;10804;48.988;2.408;2024-02-21T08:21:03;101223.56;;;10.70;71.05
21290;BME280;10804;48.988;2.408;2024-02-21T08:23:31;101214.03;;;10.71;71.21
21290;BME280;10804;48.988;2.408;2024-02-21T08:26:02;101214.03;;;10.71;71.10
21290;BME280;10804;48.988;2.408;2024-02-21T08:28:29;101214.03;;;10.71;71.13
21290;BME280;10804;48.988;2.408;2024-02-21T08:30:56;101197.47;;;10.72;71.14
21290;BME280;10804;48.988;2.408;2024-02-21T08:33:23;101205.28;;;10.72;71.07
21290;BME280;10804;48.988;2.408;2024-02-21T08:35:51;101200.09;;;10.72;71.07
21290;BME280;10804;48.988;2.408;2024-02-21T08:38:18;101197.44;;;10.73;71.13
21290;BME280;10804;48.988;2.408;2024-02-21T08:40:45;101194.84;;;10.73;71.13
21290;BME280;10804;48.988;2.408;2024-02-21T08:43:14;101196.56;;;10.74;71.15
21290;BME280;10804;48.988;2.408;2024-02-21T08:45:41;101189.56;;;10.75;71.16
21290;BME280;10804;48.988;2.408;2024-02-21T08:48:09;101181.72;;;10.76;70.99
21290;BME280;10804;48.988;2.408;2024-02-21T08:50:36;101180.00;;;10.77;71.09
21290;BME280;10804;48.988;2.408;2024-02-21T08:53:04;101180.84;;;10.76;71.04
21290;BME280;10804;48.988;2.408;2024-02-21T08:55:31;101187.81;;;10.77;71.00
21290;BME280;10804;48.988;2.408;2024-02-21T08:58:00;101166.06;;;10.76;70.94
21290;BME280;10804;48.988;2.408;2024-02-21T09:00:31;101170.41;;;10.77;71.00
21290;BME280;10804;48.988;2.408;2024-02-21T09:02:59;101173.88;;;10.78;70.95
21290;BME280;10804;48.988;2.408;2024-02-21T09:05:26;101176.44;;;10.79;71.01
21290;BME280;10804;48.988;2.408;2024-02-21T09:07:53;101166.88;;;10.80;71.00
21290;BME280;10804;48.988;2.408;2024-02-21T09:10:21;101165.97;;;10.81;70.87
21290;BME280;10804;48.988;2.408;2024-02-21T09:12:48;101170.31;;;10.82;70.88
21290;BME280;10804;48.988;2.408;2024-02-21T09:15:16;101150.25;;;10.84;70.94
21290;BME280;10804;48.988;2.408;2024-02-21T09:17:45;101151.13;;;10.84;70.90
21290;BME280;10804;48.988;2.408;2024-02-21T09:20:12;101138.97;;;10.85;70.94
21290;BME280;10804;48.988;2.408;2024-02-21T09:22:42;101133.75;;;10.85;70.86
21290;BME280;10804;48.988;2.408;2024-02-21T09:25:09;101138.91;;;10.86;70.77
21290;BME280;10804;48.988;2.408;2024-02-21T09:27:37;101131.94;;;10.87;70.82
21290;BME280;10804;48.988;2.408;2024-02-21T09:30:06;101119.72;;;10.89;70.82
21290;BME280;10804;48.988;2.408;2024-02-21T09:32:33;101104.94;;;10.89;70.90
21290;BME280;10804;48.988;2.408;2024-02-21T09:35:02;101109.25;;;10.92;70.66
21290;BME280;10804;48.988;2.408;2024-02-21T09:37:31;101114.47;;;10.92;70.82
21290;BME280;10804;48.988;2.408;2024-02-21T09:39:58;101103.97;;;10.93;70.76
21290;BME280;10804;48.988;2.408;2024-02-21T09:42:32;101103.06;;;10.94;70.76
21290;BME280;10804;48.988;2.408;2024-02-21T09:45:07;101094.34;;;10.95;70.63
21290;BME280;10804;48.988;2.408;2024-02-21T09:47:43;101103.88;;;10.98;70.68
21290;BME280;10804;48.988;2.408;2024-02-21T09:50:17;101098.66;;;10.98;70.61
21290;BME280;10804;48.988;2.408;2024-02-21T09:52:48;101093.41;;;10.99;70.77
21290;BME280;10804;48.988;2.408;2024-02-21T09:55:16;101095.09;;;11.02;70.56
21290;BME280;10804;48.988;2.408;2024-02-21T09:57:45;101088.09;;;11.04;70.60
21290;BME280;10804;48.988;2.408;2024-02-21T10:00:22;101087.19;;;11.05;70.59
21290;BME280;10804;48.988;2.408;2024-02-21T10:02:49;101088.00;;;11.07;70.63
21290;BME280;10804;48.988;2.408;2024-02-21T10:05:18;101074.03;;;11.09;70.58
21290;BME280;10804;48.988;2.408;2024-02-21T10:07:46;101061.84;;;11.10;70.75
21290;BME280;10804;48.988;2.408;2024-02-21T10:10:15;101063.56;;;11.11;70.48
21290;BME280;10804;48.988;2.408;2024-02-21T10:12:49;101060.06;;;11.12;70.41
21290;BME280;10804;48.988;2.408;2024-02-21T10:15:20;101045.22;;;11.14;70.42
21290;BME280;10804;48.988;2.408;2024-02-21T10:17:50;101052.19;;;11.15;70.43
21290;BME280;10804;48.988;2.408;2024-02-21T10:20:26;101048.69;;;11.16;70.62
21290;BME280;10804;48.988;2.408;2024-02-21T10:23:00;101040.78;;;11.17;70.38
21290;BME280;10804;48.988;2.408;2024-02-21T10:25:29;101043.38;;;11.19;70.49
21290;BME280;10804;48.988;2.408;2024-02-21T10:27:56;101032.03;;;11.20;70.51
21290;BME280;10804;48.988;2.408;2024-02-21T10:30:24;101037.19;;;11.23;70.34
21290;BME280;10804;48.988;2.408;2024-02-21T10:32:51;101018.06;;;11.22;70.33
21290;BME280;10804;48.988;2.408;2024-02-21T10:35:28;101019.72;;;11.26;70.31
21290;BME280;10804;48.988;2.408;2024-02-21T10:37:56;101022.28;;;11.28;70.37
21290;BME280;10804;48.988;2.408;2024-02-21T10:40:24;101005.69;;;11.29;70.30
21290;BME280;10804;48.988;2.408;2024-02-21T10:42:56;101000.44;;;11.32;70.24
21290;BME280;10804;48.988;2.408;2024-02-21T10:45:29;100997.75;;;11.33;70.19
21290;BME280;10804;48.988;2.408;2024-02-21T10:48:06;100992.47;;;11.36;70.25
21290;BME280;10804;48.988;2.408;2024-02-21T10:50:47;100976.78;;;11.38;70.28
21290;BME280;10804;48.988;2.408;2024-02-21T10:53:24;100977.59;;;11.40;70.20
21290;BME280;10804;48.988;2.408;2024-02-21T10:56:00;100977.50;;;11.43;70.24
21290;BME280;10804;48.988;2.408;2024-02-21T10:58:30;100967.88;;;11.44;70.30
21290;BME280;10804;48.988;2.408;2024-02-21T11:00:58;100967.84;;;11.46;70.18
21290;BME280;10804;48.988;2.408;2024-02-21T11:03:25;100960.78;;;11.49;70.26
21290;BME280;10804;48.988;2.408;2024-02-21T11:05:54;100946.78;;;11.52;70.14
21290;BME280;10804;48.988;2.408;2024-02-21T11:08:22;100945.00;;;11.54;70.28
21290;BME280;10804;48.988;2.408;2024-02-21T11:10:51;100946.69;;;11.56;70.35
21290;BME280;10804;48.988;2.408;2024-02-21T11:13:30;100927.50;;;11.59;70.11
21290;BME280;10804;48.988;2.408;2024-02-21T11:16:06;100913.50;;;11.62;70.17
21290;BME280;10804;48.988;2.408;2024-02-21T11:18:35;100910.78;;;11.64;69.98
21290;BME280;10804;48.988;2.408;2024-02-21T11:21:04;100896.81;;;11.65;70.17
21290;BME280;10804;48.988;2.408;2024-02-21T11:23:32;100909.81;;;11.68;70.04
21290;BME280;10804;48.988;2.408;2024-02-21T11:26:06;100882.78;;;11.69;69.80
21290;BME280;10804;48.988;2.408;2024-02-21T11:28:34;100882.69;;;11.72;70.04
21290;BME280;10804;48.988;2.408;2024-02-21T11:31:09;100880.88;;;11.74;70.02
21290;BME280;10804;48.988;2.408;2024-02-21T11:33:39;100882.56;;;11.77;69.80
21290;BME280;10804;48.988;2.408;2024-02-21T11:36:09;100887.75;;;11.78;69.75
21290;BME280;10804;48.988;2.408;2024-02-21T11:38:36;100867.66;;;11.80;69.99
21290;BME280;10804;48.988;2.408;2024-02-21T11:41:08;100855.47;;;11.81;69.97
21290;BME280;10804;48.988;2.408;2024-02-21T11:43:35;100852.75;;;11.84;69.65
21290;BME280;10804;48.988;2.408;2024-02-21T11:46:03;100847.50;;;11.85;69.60
21290;BME280;10804;48.988;2.408;2024-02-21T11:48:32;100841.38;;;11.86;69.60
21290;BME280;10804;48.988;2.408;2024-02-21T11:50:59;100837.81;;;11.89;69.63
21290;BME280;10804;48.988;2.408;2024-02-21T11:53:28;100821.25;;;11.88;69.59
21290;BME280;10804;48.988;2.408;2024-02-21T11:55:56;100830.72;;;11.92;69.57
21290;BME280;10804;48.988;2.408;2024-02-21T11:58:24;100828.94;;;11.94;69.56
21290;BME280;10804;48.988;2.408;2024-02-21T12:00:52;100820.19;;;11.95;69.57
21290;BME280;10804;48.988;2.408;2024-02-21T12:03:19;100815.72;;;11.99;69.43
21290;BME280;10804;48.988;2.408;2024-02-21T12:05:47;100808.75;;;11.99;69.51
21290;BME280;10804;48.988;2.408;2024-02-21T12:08:15;100800.84;;;12.01;69.45
21290;BME280;10804;48.988;2.408;2024-02-21T12:10:44;100794.66;;;12.03;69.34
21290;BME280;10804;48.988;2.408;2024-02-21T12:13:17;100787.63;;;12.05;69.41
21290;BME280;10804;48.988;2.408;2024-02-21T12:15:47;100772.81;;;12.06;69.40
21290;BME280;10804;48.988;2.408;2024-02-21T12:18:14;100782.34;;;12.07;69.43
21290;BME280;10804;48.988;2.408;2024-02-21T12:20:42;100777.94;;;12.09;69.56
21290;BME280;10804;48.988;2.408;2024-02-21T12:23:10;100764.00;;;12.10;69.22
21290;BME280;10804;48.988;2.408;2024-02-21T12:25:38;100762.22;;;12.10;69.31
21290;BME280;10804;48.988;2.408;2024-02-21T12:28:07;100754.38;;;12.10;69.17
21290;BME280;10804;48.988;2.408;2024-02-21T12:30:35;100747.31;;;12.12;69.29
21290;BME280;10804;48.988;2.408;2024-02-21T12:33:05;100740.31;;;12.14;69.35
21290;BME280;10804;48.988;2.408;2024-02-21T12:35:33;100737.63;;;12.16;69.20
21290;BME280;10804;48.988;2.408;2024-02-21T12:38:00;100727.16;;;12.16;69.07
21290;BME280;10804;48.988;2.408;2024-02-21T12:40:27;100718.41;;;12.17;69.30
21290;BME280;10804;48.988;2.408;2024-02-21T12:42:58;100717.53;;;12.18;69.32
21290;BME280;10804;48.988;2.408;2024-02-21T12:45:27;100710.53;;;12.18;69.25
21290;BME280;10804;48.988;2.408;2024-02-21T12:47:55;100691.41;;;12.18;69.34
21290;BME280;10804;48.988;2.408;2024-02-21T12:50:22;100696.50;;;12.21;69.36
21290;BME280;10804;48.988;2.408;2024-02-21T12:52:49;100678.16;;;12.22;69.15
21290;BME280;10804;48.988;2.408;2024-02-21T12:55:17;100684.31;;;12.21;69.41